createdAt,value
2019-03-21T00:01:45.022Z,26.45
2019-03-21T00:04:14.967Z,65.12
2019-03-21T00:06:43.594Z,68.05
2019-03-21T00:09:17.323Z,41.63
2019-03-21T00:12:06.555Z,39.27
2019-03-21T00:14:41.140Z,47.93
2019-03-21T00:17:15.830Z,50.92
2019-03-21T00:19:44.455Z,34.00
2019-03-21T00:22:12.848Z,43.45
2019-03-21T00:24:41.261Z,22.55
2019-03-21T00:27:09.652Z,36.10
2019-03-21T00:29:38.299Z,42.90
2019-03-21T00:32:06.950Z,29.92
2019-03-21T00:34:35.344Z,30.15
2019-03-21T00:37:03.731Z,38.80
2019-03-21T00:39:33.233Z,40.92
2019-03-21T00:42:01.648Z,33.13
2019-03-21T00:44:30.032Z,45.58
2019-03-21T00:46:58.683Z,33.58
2019-03-21T00:49:27.307Z,31.00
2019-03-21T00:51:55.980Z,34.92
2019-03-21T00:54:24.381Z,28.75
2019-03-21T00:56:52.771Z,32.75
2019-03-21T00:59:21.402Z,21.68
2019-03-21T01:01:49.808Z,27.87
2019-03-21T01:04:18.627Z,32.67
2019-03-21T01:06:47.017Z,28.25
2019-03-21T01:09:16.431Z,35.28
2019-03-21T01:11:44.823Z,27.60
2019-03-21T01:14:13.443Z,27.87
2019-03-21T01:16:41.857Z,23.80
2019-03-21T01:19:10.242Z,24.55
2019-03-21T01:21:38.627Z,32.45
2019-03-21T01:24:07.280Z,27.95
2019-03-21T01:26:35.668Z,22.05
2019-03-21T01:29:04.062Z,28.17
2019-03-21T01:31:32.473Z,23.30
2019-03-21T01:34:01.103Z,21.95
2019-03-21T01:36:29.689Z,28.10
2019-03-21T01:38:58.060Z,19.80
2019-03-21T01:41:26.443Z,23.20
2019-03-21T01:43:55.070Z,28.65
2019-03-21T01:46:25.948Z,38.20
2019-03-21T01:48:54.340Z,48.15
2019-03-21T01:51:22.965Z,40.23
2019-03-21T01:53:52.055Z,32.42
2019-03-21T01:56:20.676Z,48.80
2019-03-21T01:58:49.380Z,32.88
2019-03-21T02:01:17.784Z,36.88
2019-03-21T02:03:46.175Z,40.85
2019-03-21T02:06:14.798Z,32.08
2019-03-21T02:08:43.202Z,56.37
2019-03-21T02:11:11.593Z,29.25
2019-03-21T02:13:39.979Z,34.70
2019-03-21T02:16:08.385Z,40.73
2019-03-21T02:18:36.774Z,27.27
2019-03-21T02:21:05.161Z,36.17
2019-03-21T02:23:33.795Z,43.78
2019-03-21T02:26:02.180Z,32.38
2019-03-21T02:28:30.574Z,40.48
2019-03-21T02:30:59.229Z,40.08
2019-03-21T02:33:32.891Z,47.23
2019-03-21T02:36:03.117Z,29.55
2019-03-21T02:38:31.525Z,37.13
2019-03-21T02:41:03.780Z,30.02
2019-03-21T02:43:32.161Z,32.98
2019-03-21T02:46:00.572Z,34.78
2019-03-21T02:48:29.667Z,38.15
2019-03-21T02:50:58.313Z,35.50
2019-03-21T02:53:26.721Z,32.60
2019-03-21T02:55:55.108Z,22.00
2019-03-21T02:58:23.504Z,30.62
2019-03-21T03:00:51.955Z,27.07
2019-03-21T03:03:20.588Z,33.02
2019-03-21T03:05:48.966Z,28.32
2019-03-21T03:08:17.370Z,29.35
2019-03-21T03:10:48.783Z,36.33
2019-03-21T03:13:17.425Z,40.95
2019-03-21T03:15:45.834Z,34.58
2019-03-21T03:18:16.992Z,27.37
2019-03-21T03:20:45.385Z,29.85
2019-03-21T03:23:14.017Z,28.38
2019-03-21T03:25:42.408Z,42.10
2019-03-21T03:28:28.333Z,30.72
2019-03-21T03:30:58.283Z,30.30
2019-03-21T03:33:27.234Z,42.40
2019-03-21T03:35:55.646Z,29.30
2019-03-21T03:38:24.081Z,31.23
2019-03-21T03:41:09.817Z,25.23
2019-03-21T03:43:38.461Z,25.02
2019-03-21T03:46:07.078Z,31.55
2019-03-21T03:48:35.461Z,33.38
2019-03-21T03:51:04.090Z,35.28
2019-03-21T03:53:32.480Z,25.68
2019-03-21T03:56:01.114Z,48.35
2019-03-21T03:58:38.214Z,28.30
2019-03-21T04:01:06.598Z,30.02
2019-03-21T04:03:35.057Z,48.65
2019-03-21T04:06:03.528Z,40.10
2019-03-21T04:08:32.151Z,32.17
2019-03-21T04:11:00.718Z,38.23
2019-03-21T04:13:29.350Z,30.92
2019-03-21T04:15:57.737Z,30.30
2019-03-21T04:18:26.302Z,22.62
2019-03-21T04:21:09.007Z,35.15
2019-03-21T04:23:37.643Z,22.62
2019-03-21T04:26:11.907Z,36.93
2019-03-21T04:28:40.955Z,28.77
2019-03-21T04:31:09.342Z,33.30
2019-03-21T04:33:37.745Z,25.08
2019-03-21T04:36:06.132Z,39.85
2019-03-21T04:38:34.526Z,31.33
2019-03-21T04:41:02.950Z,36.80
2019-03-21T04:43:31.571Z,35.73
2019-03-21T04:46:03.720Z,28.75
2019-03-21T04:48:30.080Z,23.60
2019-03-21T04:50:58.708Z,28.57
2019-03-21T04:53:27.343Z,33.28
2019-03-21T04:55:55.973Z,26.37
2019-03-21T04:58:24.609Z,24.20
2019-03-21T05:00:58.375Z,43.58
2019-03-21T05:03:30.153Z,36.05
2019-03-21T05:05:58.846Z,32.08
2019-03-21T05:08:27.168Z,33.90
2019-03-21T05:10:55.564Z,21.20
2019-03-21T05:13:23.957Z,28.25
2019-03-21T05:15:54.136Z,33.65
2019-03-21T05:18:46.774Z,28.73
2019-03-21T05:21:18.707Z,26.85
2019-03-21T05:23:47.097Z,32.00
2019-03-21T05:26:15.739Z,26.45
2019-03-21T05:28:44.436Z,41.70
2019-03-21T05:31:30.292Z,29.82
2019-03-21T05:33:58.673Z,33.53
2019-03-21T05:36:27.132Z,29.35
2019-03-21T05:38:55.581Z,28.90
2019-03-21T05:41:24.285Z,42.55
2019-03-21T05:44:07.603Z,26.52
2019-03-21T05:46:35.993Z,27.82
2019-03-21T05:49:04.390Z,24.65
2019-03-21T05:51:32.773Z,36.45
2019-03-21T05:54:01.170Z,27.60
2019-03-21T05:56:29.552Z,28.45
2019-03-21T05:58:57.947Z,26.87
2019-03-21T06:01:26.391Z,38.17
2019-03-21T06:03:55.030Z,27.55
2019-03-21T06:06:41.521Z,36.53
2019-03-21T06:09:23.269Z,34.23
2019-03-21T06:12:03.174Z,36.10
2019-03-21T06:14:37.436Z,39.98
2019-03-21T06:17:05.882Z,34.43
2019-03-21T06:19:43.243Z,44.88
2019-03-21T06:22:34.104Z,31.62
2019-03-21T06:25:30.872Z,26.57
2019-03-21T06:27:59.496Z,36.03
2019-03-21T06:30:28.131Z,30.45
2019-03-21T06:32:56.541Z,27.42
2019-03-21T06:35:24.912Z,39.88
2019-03-21T06:37:53.541Z,33.98
2019-03-21T06:40:21.998Z,28.83
2019-03-21T06:42:50.711Z,28.57
2019-03-21T06:45:19.094Z,33.92
2019-03-21T06:47:47.492Z,33.67
2019-03-21T06:50:16.186Z,44.77
2019-03-21T06:52:44.597Z,40.48
2019-03-21T06:55:13.006Z,45.55
2019-03-21T06:57:41.401Z,35.75
2019-03-21T07:00:11.228Z,29.60
2019-03-21T07:02:39.627Z,22.15
2019-03-21T07:05:08.403Z,26.55
2019-03-21T07:07:37.027Z,29.92
2019-03-21T07:10:08.376Z,35.63
2019-03-21T07:12:36.759Z,29.02
2019-03-21T07:15:10.996Z,31.40
2019-03-21T07:17:39.387Z,27.93
2019-03-21T07:20:10.230Z,35.03
2019-03-21T07:22:38.740Z,43.60
2019-03-21T07:25:08.585Z,39.70
2019-03-21T07:27:37.053Z,35.05
2019-03-21T07:30:08.622Z,42.90
2019-03-21T07:32:37.016Z,29.85
2019-03-21T07:35:07.389Z,55.80
2019-03-21T07:37:35.795Z,32.33
2019-03-21T07:40:07.475Z,38.30
2019-03-21T07:42:35.916Z,40.40
2019-03-21T07:45:06.143Z,44.42
2019-03-21T07:47:34.779Z,41.10
2019-03-21T07:50:03.263Z,37.55
2019-03-21T07:52:31.911Z,27.42
2019-03-21T07:55:00.550Z,40.83
2019-03-21T07:57:28.935Z,26.20
2019-03-21T07:59:57.588Z,54.27
2019-03-21T08:02:26.225Z,34.83
2019-03-21T08:04:54.639Z,30.72
2019-03-21T08:07:23.260Z,26.55
2019-03-21T08:09:51.647Z,41.87
2019-03-21T08:12:20.049Z,26.45
2019-03-21T08:14:48.440Z,26.07
2019-03-21T08:17:16.836Z,31.90
2019-03-21T08:19:45.449Z,36.23
2019-03-21T08:22:13.828Z,26.77
2019-03-21T08:24:42.455Z,22.17
2019-03-21T08:27:10.834Z,23.17
2019-03-21T08:29:39.228Z,25.13
2019-03-21T08:32:07.608Z,34.20
2019-03-21T08:34:36.237Z,25.33
2019-03-21T08:37:04.636Z,28.10
2019-03-21T08:39:33.241Z,24.27
2019-03-21T08:42:01.877Z,24.73
2019-03-21T08:44:30.258Z,24.60
2019-03-21T08:46:58.654Z,21.00
2019-03-21T08:49:27.285Z,32.17
2019-03-21T08:51:55.658Z,22.30
2019-03-21T08:54:24.051Z,23.03
2019-03-21T08:56:52.667Z,26.33
2019-03-21T08:59:21.539Z,27.13
2019-03-21T09:01:49.924Z,19.77
2019-03-21T09:04:18.303Z,36.33
2019-03-21T09:06:46.695Z,15.43
2019-03-21T09:09:15.316Z,34.77
2019-03-21T09:11:43.966Z,20.20
2019-03-21T09:14:12.578Z,20.60
2019-03-21T09:16:41.021Z,23.93
2019-03-21T09:19:09.595Z,31.50
2019-03-21T09:21:37.978Z,21.83
2019-03-21T09:24:06.379Z,36.43
2019-03-21T09:26:34.764Z,23.60
2019-03-21T09:29:03.144Z,15.87
2019-03-21T09:31:31.534Z,26.77
2019-03-21T09:33:59.921Z,18.50
2019-03-21T09:36:28.549Z,17.30
2019-03-21T09:38:56.931Z,28.40
2019-03-21T09:41:25.545Z,26.10
2019-03-21T09:43:53.939Z,25.23
2019-03-21T09:46:22.559Z,28.37
2019-03-21T09:48:50.954Z,19.60
2019-03-21T09:51:30.338Z,24.03
2019-03-21T09:53:49.958Z,28.63
2019-03-21T09:56:18.416Z,23.20
2019-03-21T09:58:47.037Z,22.47
2019-03-21T10:01:15.684Z,24.63
2019-03-21T10:03:44.123Z,27.33
2019-03-21T10:06:12.525Z,27.17
2019-03-21T10:08:40.923Z,16.93
2019-03-21T10:11:09.317Z,27.07
2019-03-21T10:13:37.956Z,22.33
2019-03-21T10:16:06.588Z,29.47
2019-03-21T10:18:35.224Z,19.90
2019-03-21T10:21:03.924Z,26.13
2019-03-21T10:23:32.311Z,21.60
2019-03-21T10:26:00.957Z,29.70
2019-03-21T10:28:29.347Z,24.77
2019-03-21T10:30:57.998Z,24.90
2019-03-21T10:33:26.390Z,27.63
2019-03-21T10:35:55.100Z,20.70
2019-03-21T10:38:23.500Z,24.30
2019-03-21T10:40:51.886Z,22.43
2019-03-21T10:43:20.524Z,18.83
2019-03-21T10:45:49.147Z,28.57
2019-03-21T10:48:17.770Z,20.30
2019-03-21T10:50:46.173Z,20.13
2019-03-21T10:53:14.558Z,13.10
2019-03-21T10:55:42.954Z,17.27
2019-03-21T10:58:11.583Z,16.60
2019-03-21T11:00:40.342Z,12.57
2019-03-21T11:03:09.170Z,14.83
2019-03-21T11:05:37.619Z,31.23
2019-03-21T11:08:06.686Z,19.47
2019-03-21T11:10:35.152Z,20.47
2019-03-21T11:13:04.150Z,16.43
2019-03-21T11:15:32.851Z,19.63
2019-03-21T11:18:01.300Z,18.13
2019-03-21T11:20:31.572Z,14.10
2019-03-21T11:22:59.953Z,32.43
2019-03-21T11:25:28.648Z,24.57
2019-03-21T11:27:57.111Z,22.23
2019-03-21T11:30:33.684Z,17.70
2019-03-21T11:33:02.671Z,18.73
2019-03-21T11:35:31.634Z,17.57
2019-03-21T11:38:00.037Z,16.73
2019-03-21T11:40:28.557Z,19.60
2019-03-21T11:42:57.767Z,13.77
2019-03-21T11:45:26.232Z,20.37
2019-03-21T11:47:54.617Z,9.60
2019-03-21T11:50:23.261Z,12.77
2019-03-21T11:52:51.692Z,13.80
2019-03-21T11:55:20.151Z,23.23
2019-03-21T11:57:48.834Z,11.80
2019-03-21T12:00:17.554Z,14.73
2019-03-21T12:02:46.032Z,27.77
2019-03-21T12:05:14.426Z,11.10
2019-03-21T12:07:43.062Z,21.77
2019-03-21T12:10:12.655Z,11.00
2019-03-21T12:12:41.039Z,16.90
2019-03-21T12:15:10.977Z,15.80
2019-03-21T12:17:39.603Z,15.50
2019-03-21T12:20:12.916Z,17.17
2019-03-21T12:22:41.300Z,16.87
2019-03-21T12:25:10.663Z,20.10
2019-03-21T12:27:39.056Z,18.73
2019-03-21T12:30:10.580Z,21.83
2019-03-21T12:32:39.211Z,20.00
2019-03-21T12:35:08.277Z,13.90
2019-03-21T12:37:36.656Z,10.47
2019-03-21T12:40:09.194Z,17.00
2019-03-21T12:42:37.830Z,18.13
2019-03-21T12:45:10.233Z,15.00
2019-03-21T12:47:38.613Z,18.40
2019-03-21T12:50:08.667Z,14.20
2019-03-21T12:52:41.527Z,17.57
2019-03-21T12:55:07.927Z,15.20
2019-03-21T12:57:36.323Z,19.97
2019-03-21T13:00:09.998Z,11.73
2019-03-21T13:02:38.407Z,17.80
2019-03-21T13:05:08.852Z,11.77
2019-03-21T13:07:37.485Z,18.43
2019-03-21T13:10:06.904Z,14.00
2019-03-21T13:12:35.312Z,19.53
2019-03-21T13:15:05.010Z,14.60
2019-03-21T13:17:33.455Z,13.40
2019-03-21T13:20:01.846Z,16.77
2019-03-21T13:22:30.468Z,16.50
2019-03-21T13:24:59.115Z,15.47
2019-03-21T13:27:27.501Z,17.83
2019-03-21T13:29:56.129Z,18.33
2019-03-21T13:32:24.582Z,14.67
2019-03-21T13:34:53.202Z,21.00
2019-03-21T13:37:21.839Z,23.03
2019-03-21T13:39:50.222Z,17.40
2019-03-21T13:42:18.850Z,19.30
2019-03-21T13:44:47.490Z,14.53
2019-03-21T13:47:15.873Z,16.90
2019-03-21T13:49:44.507Z,21.93
2019-03-21T13:52:13.122Z,21.63
2019-03-21T13:54:41.510Z,24.53
2019-03-21T13:57:09.902Z,15.37
2019-03-21T13:59:38.793Z,15.17
2019-03-21T14:02:07.195Z,12.30
2019-03-21T14:04:35.588Z,17.73
2019-03-21T14:07:04.416Z,17.63
2019-03-21T14:09:33.011Z,15.17
2019-03-21T14:12:01.392Z,15.80
2019-03-21T14:14:30.029Z,20.57
2019-03-21T14:16:58.646Z,14.70
2019-03-21T14:19:27.028Z,14.03
2019-03-21T14:21:55.667Z,19.77
2019-03-21T14:24:24.057Z,14.20
2019-03-21T14:26:52.690Z,21.73
2019-03-21T14:29:21.316Z,12.40
2019-03-21T14:31:49.941Z,18.80
2019-03-21T14:34:18.571Z,16.90
2019-03-21T14:36:46.952Z,10.90
2019-03-21T14:39:15.597Z,13.77
2019-03-21T14:41:44.217Z,13.47
2019-03-21T14:44:12.839Z,14.67
2019-03-21T14:46:41.230Z,11.93
2019-03-21T14:49:09.614Z,12.63
2019-03-21T14:51:38.015Z,12.87
2019-03-21T14:54:06.395Z,15.50
2019-03-21T14:56:34.776Z,10.87
2019-03-21T14:59:03.407Z,12.00
2019-03-21T15:01:32.027Z,12.00
2019-03-21T15:04:00.664Z,12.30
2019-03-21T15:06:29.287Z,8.13
2019-03-21T15:08:57.912Z,9.83
2019-03-21T15:11:27.372Z,12.77
2019-03-21T15:13:56.005Z,12.50
2019-03-21T15:16:24.405Z,14.77
2019-03-21T15:18:53.028Z,16.07
2019-03-21T15:21:21.651Z,14.77
2019-03-21T15:23:58.906Z,32.13
2019-03-21T15:26:20.158Z,12.13
2019-03-21T15:28:48.560Z,14.70
2019-03-21T15:31:16.999Z,24.17
2019-03-21T15:33:45.436Z,22.97
2019-03-21T15:36:14.081Z,14.30
2019-03-21T15:38:42.699Z,15.67
2019-03-21T15:41:11.112Z,20.67
2019-03-21T15:43:39.501Z,16.13
2019-03-21T15:46:07.941Z,20.73
2019-03-21T15:48:36.340Z,21.03
2019-03-21T15:51:05.242Z,19.03
2019-03-21T15:53:33.611Z,16.10
2019-03-21T15:56:02.226Z,14.33
2019-03-21T15:58:30.856Z,15.90
2019-03-21T16:00:59.252Z,22.97
2019-03-21T16:03:27.873Z,15.93
2019-03-21T16:05:56.517Z,21.20
2019-03-21T16:08:27.263Z,18.13
2019-03-21T16:10:55.252Z,17.07
2019-03-21T16:13:23.887Z,17.87
2019-03-21T16:15:52.268Z,21.23
2019-03-21T16:18:20.664Z,27.67
2019-03-21T16:20:49.289Z,18.33
2019-03-21T16:23:17.679Z,20.83
2019-03-21T16:25:48.478Z,20.00
2019-03-21T16:28:16.668Z,15.83
2019-03-21T16:30:45.231Z,17.93
2019-03-21T16:33:13.814Z,14.33
2019-03-21T16:35:42.247Z,17.87
2019-03-21T16:38:10.627Z,20.60
2019-03-21T16:40:39.259Z,13.77
2019-03-21T16:43:07.639Z,15.37
2019-03-21T16:45:36.043Z,18.53
2019-03-21T16:48:04.843Z,12.20
2019-03-21T16:50:33.238Z,22.53
2019-03-21T16:53:01.627Z,22.00
2019-03-21T16:55:30.009Z,14.50
2019-03-21T16:57:58.402Z,17.10
2019-03-21T17:00:26.908Z,18.97
2019-03-21T17:02:55.918Z,38.97
2019-03-21T17:05:24.559Z,32.90
2019-03-21T17:07:52.940Z,20.50
2019-03-21T17:10:21.443Z,14.73
2019-03-21T17:12:50.011Z,15.90
2019-03-21T17:15:18.402Z,14.10
2019-03-21T17:17:46.827Z,14.90
2019-03-21T17:20:15.440Z,15.87
2019-03-21T17:22:43.915Z,16.50
2019-03-21T17:25:12.860Z,20.90
2019-03-21T17:27:41.335Z,16.43
2019-03-21T17:30:12.991Z,19.57
2019-03-21T17:32:41.629Z,25.50
2019-03-21T17:35:10.494Z,20.13
2019-03-21T17:37:38.957Z,19.87
2019-03-21T17:40:09.583Z,19.00
2019-03-21T17:42:38.201Z,16.03
2019-03-21T17:45:10.034Z,19.20
2019-03-21T17:47:38.733Z,15.23
2019-03-21T17:50:08.350Z,15.93
2019-03-21T17:52:36.757Z,18.47
2019-03-21T17:55:07.121Z,16.57
2019-03-21T17:57:35.744Z,27.47
2019-03-21T18:00:07.192Z,22.40
2019-03-21T18:02:35.947Z,20.00
2019-03-21T18:05:06.834Z,17.97
2019-03-21T18:07:35.216Z,17.23
2019-03-21T18:10:05.933Z,20.50
2019-03-21T18:12:34.571Z,22.20
2019-03-21T18:15:03.133Z,29.50
2019-03-21T18:17:31.618Z,19.37
2019-03-21T18:20:00.506Z,28.43
2019-03-21T18:22:28.933Z,14.13
2019-03-21T18:24:57.322Z,14.90
2019-03-21T18:27:25.777Z,17.13
2019-03-21T18:29:54.166Z,14.00
2019-03-21T18:32:22.856Z,21.00
2019-03-21T18:34:51.500Z,20.33
2019-03-21T18:37:19.939Z,18.00
2019-03-21T18:39:48.631Z,17.73
2019-03-21T18:42:17.017Z,14.67
2019-03-21T18:44:45.394Z,14.43
2019-03-21T18:47:14.021Z,16.00
2019-03-21T18:49:42.404Z,15.80
2019-03-21T18:52:11.032Z,17.43
2019-03-21T18:54:39.411Z,14.97
2019-03-21T18:57:08.031Z,14.90
2019-03-21T18:59:36.669Z,16.13
2019-03-21T19:02:05.046Z,19.67
2019-03-21T19:04:33.682Z,15.40
2019-03-21T19:07:02.396Z,20.00
2019-03-21T19:09:31.095Z,26.60
2019-03-21T19:11:59.563Z,19.70
2019-03-21T19:14:27.942Z,17.73
2019-03-21T19:16:56.330Z,16.43
2019-03-21T19:19:24.949Z,19.40
2019-03-21T19:21:53.406Z,20.10
2019-03-21T19:24:22.035Z,19.30
2019-03-21T19:26:50.409Z,32.50
2019-03-21T19:29:18.804Z,19.53
2019-03-21T19:31:47.444Z,21.53
2019-03-21T19:34:16.074Z,18.47
2019-03-21T19:36:44.693Z,19.33
2019-03-21T19:39:13.071Z,16.90
2019-03-21T19:41:41.710Z,19.20
2019-03-21T19:44:10.326Z,18.07
2019-03-21T19:46:38.730Z,23.93
2019-03-21T19:49:07.342Z,20.43
2019-03-21T19:51:36.026Z,21.00
2019-03-21T19:54:04.956Z,16.07
2019-03-21T19:56:33.572Z,21.83
2019-03-21T19:59:02.041Z,23.47
2019-03-21T20:01:30.422Z,23.63
2019-03-21T20:03:59.057Z,29.47
2019-03-21T20:06:27.677Z,28.50
2019-03-21T20:08:56.975Z,19.70
2019-03-21T20:11:25.515Z,29.93
2019-03-21T20:13:54.127Z,27.03
2019-03-21T20:16:22.811Z,23.23
2019-03-21T20:18:51.208Z,19.40
2019-03-21T20:21:19.974Z,23.13
2019-03-21T20:23:48.618Z,31.20
2019-03-21T20:26:17.069Z,24.30
2019-03-21T20:28:45.447Z,26.80
2019-03-21T20:31:14.079Z,23.30
2019-03-21T20:33:42.455Z,20.87
2019-03-21T20:36:10.924Z,23.73
2019-03-21T20:38:39.625Z,29.23
2019-03-21T20:41:08.001Z,26.97
2019-03-21T20:43:36.399Z,36.83
2019-03-21T20:46:04.785Z,24.27
2019-03-21T20:48:32.385Z,22.13
2019-03-21T20:51:00.839Z,38.00
2019-03-21T20:53:29.226Z,33.40
2019-03-21T20:55:57.959Z,24.80
2019-03-21T20:58:26.403Z,21.30
2019-03-21T21:00:54.869Z,35.53
2019-03-21T21:03:23.576Z,33.63
2019-03-21T21:05:52.290Z,32.53
2019-03-21T21:08:20.672Z,30.17
2019-03-21T21:10:49.061Z,28.80
2019-03-21T21:13:17.452Z,23.93
2019-03-21T21:15:45.866Z,48.40
2019-03-21T21:18:14.522Z,26.83
2019-03-21T21:20:42.902Z,27.30
2019-03-21T21:23:11.366Z,51.60
2019-03-21T21:25:39.763Z,32.23
2019-03-21T21:28:08.385Z,32.20
2019-03-21T21:30:36.773Z,30.30
2019-03-21T21:33:05.466Z,26.13
2019-03-21T21:35:34.087Z,29.00
2019-03-21T21:38:02.589Z,36.43
2019-03-21T21:40:33.025Z,35.63
2019-03-21T21:43:01.744Z,30.97
2019-03-21T21:45:30.188Z,28.33
2019-03-21T21:47:58.814Z,30.20
2019-03-21T21:50:27.254Z,36.83
2019-03-21T21:52:55.631Z,34.30
2019-03-21T21:55:24.029Z,37.33
2019-03-21T21:57:53.430Z,29.60
2019-03-21T22:00:24.063Z,28.60
2019-03-21T22:02:52.627Z,26.23
2019-03-21T22:05:21.145Z,28.93
2019-03-21T22:07:49.738Z,26.60
2019-03-21T22:10:18.206Z,36.33
2019-03-21T22:12:46.827Z,27.10
2019-03-21T22:15:16.060Z,27.20
2019-03-21T22:17:44.513Z,23.77
2019-03-21T22:20:15.264Z,31.13
2019-03-21T22:22:43.832Z,30.73
2019-03-21T22:25:12.764Z,29.02
2019-03-21T22:27:41.379Z,37.60
2019-03-21T22:30:20.443Z,26.80
2019-03-21T22:32:48.900Z,32.57
2019-03-21T22:35:17.308Z,41.18
2019-03-21T22:37:45.692Z,29.57
2019-03-21T22:40:19.843Z,28.33
2019-03-21T22:42:48.248Z,26.37
2019-03-21T22:45:17.811Z,34.87
2019-03-21T22:47:46.538Z,31.10
2019-03-21T22:50:17.070Z,23.45
2019-03-21T22:52:46.064Z,26.35
2019-03-21T22:55:14.713Z,24.73
2019-03-21T22:57:43.243Z,24.30
2019-03-21T23:00:14.592Z,29.80
2019-03-21T23:02:43.210Z,29.83
2019-03-21T23:05:11.742Z,29.60
2019-03-21T23:07:40.147Z,25.65
2019-03-21T23:10:09.771Z,23.20
2019-03-21T23:12:38.383Z,32.53
2019-03-21T23:15:09.491Z,32.70
2019-03-21T23:17:38.625Z,41.42
2019-03-21T23:20:09.494Z,24.82
2019-03-21T23:22:37.879Z,26.83
2019-03-21T23:25:07.595Z,30.27
2019-03-21T23:27:36.002Z,31.85
2019-03-21T23:30:07.499Z,34.00
2019-03-21T23:32:35.902Z,35.90
2019-03-21T23:35:05.926Z,31.77
2019-03-21T23:37:34.476Z,23.57
2019-03-21T23:40:03.636Z,30.10
2019-03-21T23:42:32.026Z,26.65
2019-03-21T23:45:00.489Z,33.93
2019-03-21T23:47:28.811Z,29.20
2019-03-21T23:49:57.201Z,30.57
2019-03-21T23:52:25.598Z,43.50
2019-03-21T23:54:54.228Z,31.65
2019-03-21T23:57:22.634Z,31.42
2019-03-21T23:59:51.014Z,32.77
